Time;durP1;ratioP1;P1;durP2;ratioP2;P2;SDS_P1;SDS_P2;PMS_P1;PMS_P2;Temp;Humidity;BMP_temperature;BMP_pressure;BME280_temperature;BME280_humidity;BME280_pressure;Samples;Min_cycle;Max_cycle;Signal;HPM_P1;HPM_P2
2021/08/04 00:00:28;;;;;;;1.23;1.23;;;16.80;99.90;;;;;;5043616;28;20666;-76
2021/08/04 00:02:55;;;;;;;1.70;1.60;;;16.80;99.90;;;;;;5045037;28;20203;-77
2021/08/04 00:05:22;;;;;;;1.50;1.40;;;16.80;99.90;;;;;;5048906;28;20226;-76
2021/08/04 00:07:49;;;;;;;1.40;1.40;;;16.80;99.90;;;;;;5044733;28;20199;-76
2021/08/04 00:10:18;;;;;;;1.50;1.40;;;16.80;99.90;;;;;;5045174;28;20620;-75
2021/08/04 00:12:45;;;;;;;1.45;1.40;;;16.80;99.90;;;;;;5050241;28;20207;-76
2021/08/04 00:15:13;;;;;;;1.50;1.40;;;16.80;99.90;;;;;;5050012;28;20214;-76
2021/08/04 00:17:41;;;;;;;1.58;1.48;;;16.80;99.90;;;;;;5048134;28;20219;-76
2021/08/04 00:20:10;;;;;;;1.52;1.42;;;16.80;99.90;;;;;;5049855;28;20252;-76
2021/08/04 00:22:37;;;;;;;1.20;1.15;;;16.80;99.90;;;;;;5041151;28;20755;-76
2021/08/04 00:25:05;;;;;;;1.65;1.55;;;16.80;99.90;;;;;;5044242;28;20218;-76
2021/08/04 00:27:35;;;;;;;1.58;1.48;;;16.80;99.90;;;;;;5056848;28;20314;-77
2021/08/04 00:30:02;;;;;;;1.50;1.40;;;16.80;99.90;;;;;;5048276;28;20642;-76
2021/08/04 00:32:29;;;;;;;1.48;1.38;;;16.80;99.90;;;;;;5044418;28;20629;-76
2021/08/04 00:34:56;;;;;;;1.33;1.27;;;16.80;99.90;;;;;;5044376;28;20438;-76
2021/08/04 00:37:23;;;;;;;1.48;1.38;;;16.80;99.90;;;;;;5062625;28;20271;-77
2021/08/04 00:39:50;;;;;;;1.65;1.55;;;16.80;99.90;;;;;;5061775;28;20244;-76
2021/08/04 00:42:18;;;;;;;1.23;1.23;;;16.90;99.90;;;;;;5064891;28;20222;-76
2021/08/04 00:44:47;;;;;;;1.60;1.48;;;16.80;99.90;;;;;;5066561;28;20590;-76
2021/08/04 00:47:14;;;;;;;1.52;1.40;;;16.80;99.90;;;;;;5063117;28;20261;-76
2021/08/04 00:49:41;;;;;;;1.83;1.35;;;16.90;99.90;;;;;;5063420;28;20206;-76
2021/08/04 00:52:08;;;;;;;1.85;1.75;;;16.80;99.90;;;;;;5065089;28;20218;-77
2021/08/04 00:54:36;;;;;;;1.60;1.50;;;16.80;99.90;;;;;;5065672;28;20197;-76
2021/08/04 00:57:04;;;;;;;1.60;1.50;;;16.80;99.90;;;;;;5060068;28;20276;-77
2021/08/04 00:59:31;;;;;;;1.30;1.30;;;16.80;99.90;;;;;;5061307;28;20618;-76
2021/08/04 01:02:08;;;;;;;1.35;1.25;;;16.70;99.90;;;;;;5062602;28;20221;-77
2021/08/04 01:04:40;;;;;;;1.45;1.35;;;16.80;99.90;;;;;;5062913;28;20205;-77
2021/08/04 01:07:14;;;;;;;1.67;1.58;;;16.80;99.90;;;;;;5063003;28;20234;-77
2021/08/04 01:09:46;;;;;;;1.50;1.40;;;16.80;99.90;;;;;;5062869;28;20295;-75
2021/08/04 01:12:25;;;;;;;1.48;1.38;;;16.80;99.90;;;;;;5062485;28;20218;-76
2021/08/04 01:14:58;;;;;;;1.60;1.50;;;16.80;99.90;;;;;;5063705;28;22195;-76
2021/08/04 01:17:26;;;;;;;1.50;1.40;;;16.80;99.90;;;;;;5061304;28;20218;-76
2021/08/04 01:20:07;;;;;;;1.40;1.35;;;16.80;99.90;;;;;;5079934;28;20190;-75
2021/08/04 01:22:47;;;;;;;1.50;1.40;;;16.70;99.90;;;;;;5058204;28;20214;-75
2021/08/04 01:25:17;;;;;;;1.63;1.52;;;16.70;99.90;;;;;;5063884;28;20244;-78
2021/08/04 01:27:49;;;;;;;1.30;1.20;;;16.60;99.90;;;;;;5064435;28;20643;-77
2021/08/04 01:30:16;;;;;;;1.60;1.50;;;16.60;99.90;;;;;;5060615;28;20198;-76
2021/08/04 01:32:43;;;;;;;1.50;1.40;;;16.60;99.90;;;;;;5046244;28;20222;-77
2021/08/04 01:35:12;;;;;;;1.50;1.40;;;16.60;99.90;;;;;;5043617;28;20219;-76
2021/08/04 01:37:41;;;;;;;1.50;1.40;;;16.60;99.90;;;;;;5042559;28;20215;-76
2021/08/04 01:40:11;;;;;;;1.80;1.70;;;16.60;99.90;;;;;;5040683;28;20199;-78
2021/08/04 01:42:39;;;;;;;1.40;1.40;;;16.60;99.90;;;;;;5044212;28;20276;-76
2021/08/04 01:45:09;;;;;;;1.40;1.30;;;16.60;99.90;;;;;;5044019;28;20215;-76
2021/08/04 01:47:38;;;;;;;1.40;1.30;;;16.60;99.90;;;;;;5046947;28;20219;-76
2021/08/04 01:50:06;;;;;;;1.73;1.63;;;16.60;99.90;;;;;;5048108;28;20240;-76
2021/08/04 01:52:34;;;;;;;1.70;1.60;;;16.60;99.90;;;;;;5046208;28;20283;-75
2021/08/04 01:55:01;;;;;;;1.15;1.15;;;16.60;99.90;;;;;;5045892;28;20264;-76
2021/08/04 01:57:28;;;;;;;1.25;1.25;;;16.50;99.90;;;;;;5041462;28;20701;-76
2021/08/04 01:59:55;;;;;;;2.13;1.60;;;16.50;99.90;;;;;;5043020;28;20719;-77
2021/08/04 02:02:24;;;;;;;1.77;1.67;;;16.50;99.90;;;;;;5038154;28;20241;-76
2021/08/04 02:04:52;;;;;;;1.58;1.48;;;16.50;99.90;;;;;;5039598;28;20586;-76
2021/08/04 02:07:34;;;;;;;1.60;1.50;;;16.50;99.90;;;;;;5038452;28;20313;-77
2021/08/04 02:10:06;;;;;;;1.75;1.65;;;16.50;99.90;;;;;;5041690;28;20257;-75
2021/08/04 02:12:42;;;;;;;1.73;1.63;;;16.50;99.90;;;;;;5057551;28;20222;-78
2021/08/04 02:15:13;;;;;;;1.42;1.33;;;16.50;99.90;;;;;;5042593;28;20944;-76
2021/08/04 02:17:45;;;;;;;1.33;1.33;;;16.50;99.90;;;;;;5044175;28;20594;-75
2021/08/04 02:20:20;;;;;;;2.55;1.50;;;16.50;99.90;;;;;;5046293;28;20199;-76
2021/08/04 02:22:51;;;;;;;1.88;1.77;;;16.40;99.90;;;;;;5062458;28;20213;-77
2021/08/04 02:25:24;;;;;;;1.70;1.55;;;16.40;99.90;;;;;;5063239;28;20221;-76
2021/08/04 02:27:55;;;;;;;1.60;1.50;;;16.40;99.90;;;;;;5063327;28;20268;-78
2021/08/04 02:30:23;;;;;;;1.55;1.45;;;16.30;99.90;;;;;;5062007;28;20263;-76
2021/08/04 02:32:52;;;;;;;1.48;1.40;;;16.40;99.90;;;;;;5047329;28;20223;-75
2021/08/04 02:35:19;;;;;;;1.75;1.65;;;16.30;99.90;;;;;;5047459;28;20230;-77
2021/08/04 02:37:46;;;;;;;1.60;1.50;;;16.40;99.90;;;;;;5043111;28;20218;-76
2021/08/04 02:40:15;;;;;;;1.45;1.35;;;16.40;99.90;;;;;;5043223;28;20818;-76
2021/08/04 02:42:43;;;;;;;1.35;1.25;;;16.30;99.90;;;;;;5060093;28;20279;-76
2021/08/04 02:45:12;;;;;;;1.60;1.50;;;16.30;99.90;;;;;;5064039;28;20210;-76
2021/08/04 02:47:39;;;;;;;1.95;1.85;;;16.30;99.90;;;;;;5059581;28;20578;-76
2021/08/04 02:50:09;;;;;;;1.33;1.30;;;16.30;99.90;;;;;;5064867;28;20294;-76
2021/08/04 02:52:36;;;;;;;1.60;1.50;;;16.30;99.90;;;;;;5059140;28;20256;-76
2021/08/04 02:55:05;;;;;;;1.48;1.40;;;16.30;99.90;;;;;;5061017;28;20730;-76
2021/08/04 02:57:32;;;;;;;1.50;1.40;;;16.20;99.90;;;;;;5064138;28;20271;-76
2021/08/04 02:59:59;;;;;;;1.70;1.60;;;16.30;99.90;;;;;;5060891;28;20574;-77
2021/08/04 03:02:26;;;;;;;1.30;1.30;;;16.30;99.90;;;;;;5063978;28;20222;-77
2021/08/04 03:04:53;;;;;;;1.95;1.50;;;16.30;99.90;;;;;;5072480;28;20279;-75
2021/08/04 03:07:21;;;;;;;1.70;1.60;;;16.30;99.90;;;;;;5063011;28;20235;-75
2021/08/04 03:09:48;;;;;;;1.50;1.40;;;16.30;99.90;;;;;;5061351;28;20718;-75
2021/08/04 03:12:15;;;;;;;1.67;1.58;;;16.30;99.90;;;;;;5064310;28;20291;-76
2021/08/04 03:14:42;;;;;;;1.60;1.50;;;16.30;99.90;;;;;;5061737;28;20778;-76
2021/08/04 03:17:09;;;;;;;1.70;1.60;;;16.30;99.90;;;;;;5062310;28;20229;-76
2021/08/04 03:19:36;;;;;;;1.83;1.73;;;16.30;99.90;;;;;;5062262;28;20252;-76
2021/08/04 03:22:04;;;;;;;1.77;1.67;;;16.20;99.90;;;;;;5060621;28;20719;-76
2021/08/04 03:24:32;;;;;;;1.75;1.65;;;16.30;99.90;;;;;;5062557;28;20611;-75
2021/08/04 03:26:59;;;;;;;3.60;1.50;;;16.20;99.90;;;;;;5064156;28;20590;-76
2021/08/04 03:29:26;;;;;;;1.33;1.33;;;16.30;99.90;;;;;;5062938;28;20214;-77
2021/08/04 03:31:53;;;;;;;1.55;1.45;;;16.30;99.90;;;;;;5062120;28;20215;-76
2021/08/04 03:34:20;;;;;;;1.75;1.65;;;16.20;99.90;;;;;;5062912;28;20849;-75
2021/08/04 03:36:47;;;;;;;1.70;1.60;;;16.20;99.90;;;;;;5059849;28;20235;-75
2021/08/04 03:39:14;;;;;;;1.60;1.50;;;16.20;99.90;;;;;;5064940;28;20198;-76
2021/08/04 03:41:42;;;;;;;1.70;1.48;;;16.20;99.90;;;;;;5060712;28;20226;-77
2021/08/04 03:44:10;;;;;;;1.50;1.40;;;16.20;99.90;;;;;;5064841;28;20191;-75
2021/08/04 03:46:37;;;;;;;2.00;1.80;;;16.20;99.90;;;;;;5062613;28;20265;-76
2021/08/04 03:49:04;;;;;;;1.40;1.40;;;16.20;99.90;;;;;;5064404;28;20240;-76
2021/08/04 03:51:31;;;;;;;1.70;1.60;;;16.20;99.90;;;;;;5058889;28;20217;-76
2021/08/04 03:53:58;;;;;;;1.50;1.40;;;16.20;99.90;;;;;;5057525;28;20251;-77
2021/08/04 03:56:25;;;;;;;1.50;1.40;;;16.20;99.90;;;;;;5076619;28;20238;-75
2021/08/04 03:58:53;;;;;;;1.92;1.63;;;16.20;99.90;;;;;;5059819;28;20611;-76
2021/08/04 04:01:20;;;;;;;1.58;1.40;;;16.20;99.90;;;;;;5057514;28;20202;-77
2021/08/04 04:03:47;;;;;;;1.70;1.60;;;16.20;99.90;;;;;;5061747;28;20211;-77
2021/08/04 04:06:14;;;;;;;1.80;1.70;;;16.20;99.90;;;;;;5061122;28;20230;-77
2021/08/04 04:08:42;;;;;;;1.92;1.80;;;16.20;99.90;;;;;;5063343;28;20206;-76
2021/08/04 04:11:09;;;;;;;1.45;1.35;;;16.20;99.90;;;;;;5062350;28;20199;-76
2021/08/04 04:13:36;;;;;;;1.77;1.60;;;16.20;99.90;;;;;;5061027;28;20201;-76
2021/08/04 04:16:05;;;;;;;1.50;1.45;;;16.20;99.90;;;;;;5060079;28;20307;-76
2021/08/04 04:18:32;;;;;;;1.58;1.48;;;16.20;99.90;;;;;;5073113;23;20658;-77
2021/08/04 04:20:59;;;;;;;1.33;1.33;;;16.20;99.90;;;;;;5023342;28;20254;-78
2021/08/04 04:23:26;;;;;;;1.60;1.50;;;16.20;99.90;;;;;;5035852;28;20651;-77
2021/08/04 04:25:53;;;;;;;1.80;1.70;;;16.20;99.90;;;;;;5043599;28;20493;-77
2021/08/04 04:28:20;;;;;;;1.60;1.48;;;16.20;99.90;;;;;;5038834;28;20231;-77
2021/08/04 04:30:47;;;;;;;1.27;1.25;;;16.20;99.90;;;;;;5042257;28;20200;-77
2021/08/04 04:33:16;;;;;;;1.80;1.70;;;16.10;99.90;;;;;;5047010;28;20226;-77
2021/08/04 04:35:43;;;;;;;6.15;1.67;;;16.10;99.90;;;;;;5046970;28;20265;-76
2021/08/04 04:38:10;;;;;;;1.73;1.63;;;16.20;99.90;;;;;;5045515;28;20222;-78
2021/08/04 04:40:37;;;;;;;1.75;1.65;;;16.20;99.90;;;;;;5044187;28;20662;-79
2021/08/04 04:43:04;;;;;;;1.60;1.50;;;16.20;99.90;;;;;;5034181;28;20223;-78
2021/08/04 04:45:31;;;;;;;1.80;1.70;;;16.20;99.90;;;;;;5032621;28;20203;-78
2021/08/04 04:47:58;;;;;;;1.88;1.40;;;16.20;99.90;;;;;;5034966;28;20227;-78
2021/08/04 04:50:26;;;;;;;1.88;1.77;;;16.20;99.90;;;;;;5032347;28;20639;-78
2021/08/04 04:52:54;;;;;;;1.55;1.52;;;16.20;99.90;;;;;;5034932;28;20211;-77
2021/08/04 04:55:21;;;;;;;1.60;1.50;;;16.20;99.90;;;;;;5032232;28;20199;-78
2021/08/04 04:57:48;;;;;;;1.50;1.40;;;16.20;99.90;;;;;;5035541;28;20223;-78
2021/08/04 05:00:15;;;;;;;1.65;1.55;;;16.20;99.90;;;;;;5033735;28;20220;-78
2021/08/04 05:02:42;;;;;;;1.80;1.70;;;16.20;99.90;;;;;;5033579;28;20242;-78
2021/08/04 05:05:10;;;;;;;1.55;1.45;;;16.30;99.90;;;;;;5035120;28;20199;-78
2021/08/04 05:07:39;;;;;;;2.05;1.45;;;16.30;99.90;;;;;;5035464;28;20277;-77
2021/08/04 05:10:07;;;;;;;1.75;1.65;;;16.40;99.90;;;;;;5035506;28;20219;-78
2021/08/04 05:12:34;;;;;;;1.85;1.75;;;16.40;99.90;;;;;;5033850;28;20228;-79
2021/08/04 05:15:01;;;;;;;1.77;1.67;;;16.40;99.90;;;;;;5033668;28;20200;-79
2021/08/04 05:17:28;;;;;;;1.50;1.40;;;16.40;99.90;;;;;;5033421;28;20621;-78
2021/08/04 05:19:56;;;;;;;1.70;1.58;;;16.40;99.90;;;;;;5034516;28;20262;-78
2021/08/04 05:22:23;;;;;;;1.50;1.40;;;16.40;99.90;;;;;;5037199;28;20587;-77
2021/08/04 05:24:52;;;;;;;1.67;1.58;;;16.40;99.90;;;;;;5052087;28;20195;-78
2021/08/04 05:27:19;;;;;;;1.60;1.50;;;16.40;99.90;;;;;;5048595;28;20296;-77
2021/08/04 05:29:46;;;;;;;1.70;1.60;;;16.50;99.90;;;;;;5051551;28;20215;-78
2021/08/04 05:32:13;;;;;;;1.60;1.50;;;16.50;99.90;;;;;;5048665;28;20219;-78
2021/08/04 05:34:40;;;;;;;1.60;1.50;;;16.60;99.90;;;;;;5049509;28;20199;-78
2021/08/04 05:37:07;;;;;;;1.60;1.50;;;16.70;99.90;;;;;;5053295;28;20652;-77
2021/08/04 05:39:34;;;;;;;1.63;1.52;;;16.70;99.90;;;;;;5046879;28;20242;-78
2021/08/04 05:42:02;;;;;;;1.60;1.50;;;16.80;99.90;;;;;;5053687;28;20214;-78
2021/08/04 05:44:29;;;;;;;1.90;1.80;;;16.90;99.90;;;;;;5054321;28;20211;-78
2021/08/04 05:46:56;;;;;;;1.90;1.80;;;17.00;99.90;;;;;;5050485;28;20235;-78
2021/08/04 05:49:23;;;;;;;1.63;1.52;;;17.00;99.90;;;;;;5044720;28;20227;-78
2021/08/04 05:51:51;;;;;;;1.70;1.60;;;17.10;99.90;;;;;;5046856;28;20253;-78
2021/08/04 05:54:18;;;;;;;2.53;1.50;;;17.20;99.90;;;;;;5047941;28;20200;-78
2021/08/04 05:56:46;;;;;;;1.48;1.38;;;17.30;99.90;;;;;;5041066;28;20310;-80
2021/08/04 05:59:15;;;;;;;1.85;1.70;;;17.30;99.90;;;;;;5039396;28;20223;-78
2021/08/04 06:01:44;;;;;;;1.55;1.50;;;17.40;99.90;;;;;;5039527;28;20200;-78
2021/08/04 06:04:11;;;;;;;1.55;1.45;;;17.40;99.90;;;;;;5020651;28;20201;-79
2021/08/04 06:06:39;;;;;;;1.75;1.65;;;17.40;99.90;;;;;;5023737;28;20199;-79
2021/08/04 06:09:06;;;;;;;1.48;1.38;;;17.40;99.90;;;;;;5037205;28;20231;-78
2021/08/04 06:11:33;;;;;;;1.55;1.40;;;17.40;99.90;;;;;;5040014;28;20207;-78
2021/08/04 06:14:00;;;;;;;1.50;1.40;;;17.40;99.90;;;;;;5035114;28;20563;-78
2021/08/04 06:16:29;;;;;;;1.80;1.70;;;17.50;99.90;;;;;;5041137;28;20199;-79
2021/08/04 06:18:56;;;;;;;2.00;1.90;;;17.50;99.90;;;;;;5034362;28;20242;-78
2021/08/04 06:21:26;;;;;;;1.90;1.80;;;17.60;99.90;;;;;;5036069;28;20383;-78
2021/08/04 06:23:53;;;;;;;1.88;1.60;;;17.60;99.90;;;;;;5039759;28;20222;-78
2021/08/04 06:26:20;;;;;;;1.75;1.65;;;17.70;99.90;;;;;;5045632;28;20611;-78
2021/08/04 06:28:48;;;;;;;2.05;1.88;;;17.80;99.90;;;;;;5038158;28;20261;-80
2021/08/04 06:31:15;;;;;;;1.95;1.77;;;17.90;99.90;;;;;;5033078;28;20210;-79
2021/08/04 06:33:43;;;;;;;1.95;1.85;;;17.80;99.90;;;;;;5043242;28;20266;-79
2021/08/04 06:36:11;;;;;;;1.90;1.80;;;17.80;99.90;;;;;;5036618;28;20199;-79
2021/08/04 06:38:38;;;;;;;2.35;1.85;;;17.70;99.90;;;;;;5030227;28;20223;-78
2021/08/04 06:41:05;;;;;;;2.00;1.85;;;17.60;99.90;;;;;;5033962;28;20208;-79
2021/08/04 06:43:32;;;;;;;1.70;1.60;;;17.60;99.90;;;;;;5042771;28;20231;-79
2021/08/04 06:45:59;;;;;;;1.80;1.70;;;17.60;99.90;;;;;;5033981;28;20566;-79
2021/08/04 06:48:27;;;;;;;1.75;1.63;;;17.60;99.90;;;;;;5042229;28;20308;-77
2021/08/04 06:50:56;;;;;;;1.80;1.70;;;17.60;99.90;;;;;;5035938;28;20199;-78
2021/08/04 06:53:23;;;;;;;1.70;1.60;;;17.60;99.90;;;;;;5029283;28;20227;-78
2021/08/04 06:55:50;;;;;;;3.33;1.98;;;17.60;99.90;;;;;;5026159;28;20755;-78
2021/08/04 06:58:17;;;;;;;2.15;2.05;;;17.60;99.90;;;;;;5020443;28;20267;-79
2021/08/04 07:00:44;;;;;;;1.70;1.60;;;17.70;99.90;;;;;;5019938;28;20200;-79
2021/08/04 07:03:11;;;;;;;3.03;1.70;;;17.70;99.90;;;;;;5013157;28;20211;-79
2021/08/04 07:05:38;;;;;;;1.80;1.40;;;17.80;99.90;;;;;;5021044;28;20587;-78
2021/08/04 07:08:07;;;;;;;2.08;1.80;;;18.00;99.90;;;;;;5028841;28;20750;-78
2021/08/04 07:10:35;;;;;;;1.40;1.40;;;18.10;99.90;;;;;;5041516;28;20212;-79
2021/08/04 07:13:02;;;;;;;1.88;1.67;;;18.20;99.90;;;;;;5043862;28;20223;-78
2021/08/04 07:15:32;;;;;;;3.17;1.65;;;18.30;99.90;;;;;;5044522;28;20207;-79
2021/08/04 07:17:59;;;;;;;2.08;1.83;;;18.50;99.90;;;;;;5031609;28;20615;-79
2021/08/04 07:20:26;;;;;;;1.88;1.77;;;18.50;99.90;;;;;;5026040;28;20230;-78
2021/08/04 07:22:53;;;;;;;1.80;1.70;;;18.60;99.90;;;;;;5031641;28;20311;-80
2021/08/04 07:25:22;;;;;;;1.80;1.65;;;18.80;99.90;;;;;;5041195;28;20230;-79
2021/08/04 07:27:49;;;;;;;1.85;1.75;;;18.80;99.90;;;;;;5035577;28;20219;-79
2021/08/04 07:30:17;;;;;;;1.80;1.70;;;19.00;99.90;;;;;;5039012;28;20298;-80
2021/08/04 07:32:44;;;;;;;1.60;1.50;;;19.10;99.90;;;;;;5038345;28;20281;-78
2021/08/04 07:35:11;;;;;;;1.85;1.75;;;19.30;99.90;;;;;;5025061;28;20204;-78
2021/08/04 07:37:38;;;;;;;2.80;1.80;;;19.50;99.90;;;;;;5032388;28;20941;-79
2021/08/04 07:40:08;;;;;;;3.60;1.80;;;19.50;99.90;;;;;;5042640;28;20222;-79
2021/08/04 07:42:37;;;;;;;1.98;1.88;;;19.50;99.90;;;;;;5026607;28;20303;-78
2021/08/04 07:45:05;;;;;;;1.65;1.55;;;19.40;99.90;;;;;;5018672;28;20196;-78
2021/08/04 07:47:32;;;;;;;2.00;1.80;;;19.40;99.90;;;;;;5025698;28;20660;-77
2021/08/04 07:49:59;;;;;;;3.22;1.70;;;19.50;99.90;;;;;;5037823;28;20729;-78
2021/08/04 07:52:26;;;;;;;2.58;1.65;;;19.80;99.90;;;;;;5033759;28;20670;-78
2021/08/04 07:54:53;;;;;;;3.97;1.80;;;20.20;99.90;;;;;;5041075;28;20202;-78
2021/08/04 07:57:20;;;;;;;1.77;1.67;;;20.30;99.90;;;;;;5032139;28;20201;-78
2021/08/04 07:59:48;;;;;;;1.50;1.40;;;20.30;99.90;;;;;;5041263;28;20239;-78
2021/08/04 08:02:15;;;;;;;1.80;1.48;;;20.60;99.90;;;;;;5028234;28;20199;-80
2021/08/04 08:04:42;;;;;;;1.90;1.70;;;20.70;99.90;;;;;;5035290;28;20616;-79
2021/08/04 08:07:09;;;;;;;1.98;1.80;;;20.70;99.90;;;;;;5039139;28;20242;-78
2021/08/04 08:09:37;;;;;;;1.50;1.40;;;20.70;99.90;;;;;;5039928;28;20851;-78
2021/08/04 08:12:05;;;;;;;2.72;1.60;;;20.90;99.90;;;;;;5038024;28;20199;-78
2021/08/04 08:14:32;;;;;;;1.80;1.70;;;21.20;99.90;;;;;;5041629;28;20309;-79
2021/08/04 08:17:00;;;;;;;2.20;2.00;;;21.40;99.90;;;;;;5038051;28;20678;-78
2021/08/04 08:19:28;;;;;;;1.70;1.60;;;21.20;99.90;;;;;;5048037;28;20223;-78
2021/08/04 08:21:55;;;;;;;2.35;1.80;;;21.10;99.90;;;;;;5038677;28;20199;-79
2021/08/04 08:24:22;;;;;;;3.05;1.80;;;21.00;99.90;;;;;;5045552;28;20243;-77
2021/08/04 08:26:49;;;;;;;1.90;1.70;;;21.00;99.90;;;;;;5040237;28;20413;-78
2021/08/04 08:29:17;;;;;;;1.70;1.60;;;21.00;99.90;;;;;;5034520;28;20583;-76
2021/08/04 08:31:44;;;;;;;2.35;1.83;;;21.10;99.90;;;;;;5039551;28;20907;-78
2021/08/04 08:34:12;;;;;;;4.10;1.92;;;21.10;99.90;;;;;;5039933;28;20223;-77
2021/08/04 08:36:40;;;;;;;2.83;1.90;;;21.20;99.90;;;;;;5046854;28;20615;-79
2021/08/04 08:39:12;;;;;;;1.80;1.70;;;21.40;99.90;;;;;;5022410;28;20220;-77
2021/08/04 08:41:39;;;;;;;2.10;1.90;;;22.00;99.90;;;;;;5019741;28;20546;-77
2021/08/04 08:44:10;;;;;;;2.35;1.75;;;22.20;99.90;;;;;;5016822;28;20224;-78
2021/08/04 08:46:37;;;;;;;1.85;1.70;;;22.50;99.90;;;;;;5017627;28;20191;-76
2021/08/04 08:49:05;;;;;;;2.33;1.90;;;22.60;99.90;;;;;;5015915;28;20281;-75
2021/08/04 08:51:34;;;;;;;2.17;1.95;;;22.90;99.90;;;;;;5019048;28;20207;-77
2021/08/04 08:54:01;;;;;;;5.15;2.10;;;23.00;99.90;;;;;;5019496;28;20223;-75
2021/08/04 08:56:28;;;;;;;2.92;1.90;;;23.30;99.90;;;;;;5015916;28;20198;-77
2021/08/04 08:58:56;;;;;;;2.00;1.90;;;23.50;99.90;;;;;;5020984;28;20694;-77
2021/08/04 09:01:34;;;;;;;2.28;2.08;;;23.70;99.90;;;;;;5020582;28;20199;-78
2021/08/04 09:04:03;;;;;;;1.88;1.73;;;23.60;99.90;;;;;;5019794;28;20230;-77
2021/08/04 09:06:50;;;;;;;2.08;1.88;;;23.50;99.90;;;;;;5011142;28;20654;-78
2021/08/04 09:09:19;;;;;;;3.38;1.90;;;23.70;99.90;;;;;;5018399;28;20241;-78
2021/08/04 09:11:51;;;;;;;3.17;2.00;;;23.90;99.90;;;;;;5019597;28;20200;-79
2021/08/04 09:14:26;;;;;;;2.20;1.80;;;23.60;99.90;;;;;;5022374;28;20223;-77
2021/08/04 09:17:05;;;;;;;1.75;1.65;;;23.00;99.90;;;;;;5020310;28;20287;-77
2021/08/04 09:19:33;;;;;;;1.92;1.83;;;22.70;99.90;;;;;;5043581;28;20284;-79
2021/08/04 09:22:22;;;;;;;2.38;1.75;;;22.30;99.90;;;;;;5040924;28;20462;-78
2021/08/04 09:25:14;;;;;;;2.28;1.73;;;22.00;99.90;;;;;;5027609;28;20314;-77
2021/08/04 09:27:48;;;;;;;2.17;2.08;;;21.80;99.90;;;;;;5019095;28;20706;-78
2021/08/04 09:30:19;;;;;;;2.03;1.73;;;21.60;99.90;;;;;;5028764;28;20602;-78
2021/08/04 09:32:46;;;;;;;2.20;1.70;;;21.50;99.90;;;;;;5023489;28;20230;-79
2021/08/04 09:35:15;;;;;;;3.80;1.80;;;21.50;99.90;;;;;;5034790;28;20273;-78
2021/08/04 09:37:46;;;;;;;1.88;1.75;;;21.50;99.90;;;;;;5043403;28;20710;-78
2021/08/04 09:40:15;;;;;;;2.25;1.60;;;21.50;99.90;;;;;;5037173;28;20243;-77
2021/08/04 09:42:45;;;;;;;1.60;1.50;;;21.50;99.90;;;;;;5045130;28;20195;-78
2021/08/04 09:45:13;;;;;;;2.00;1.75;;;21.50;99.90;;;;;;5031932;28;20212;-78
2021/08/04 09:48:05;;;;;;;2.35;1.70;;;21.40;99.90;;;;;;5034547;28;20206;-78
2021/08/04 09:50:47;;;;;;;2.28;1.67;;;21.20;99.90;;;;;;5025637;28;20211;-79
2021/08/04 09:53:21;;;;;;;3.28;1.90;;;21.10;99.90;;;;;;5025860;28;20210;-79
2021/08/04 09:56:06;;;;;;;1.95;1.85;;;21.00;99.90;;;;;;5035265;28;20210;-78
2021/08/04 09:58:33;;;;;;;1.60;1.50;;;21.00;99.90;;;;;;5038711;28;20281;-78
2021/08/04 10:01:01;;;;;;;1.60;1.50;;;21.10;99.90;;;;;;5045135;28;20661;-78
2021/08/04 10:03:28;;;;;;;1.88;1.77;;;21.10;99.90;;;;;;5040772;28;20773;-79
2021/08/04 10:05:55;;;;;;;2.25;1.90;;;21.20;99.90;;;;;;5027050;28;20206;-78
2021/08/04 10:08:24;;;;;;;2.45;2.25;;;21.30;99.90;;;;;;5025062;28;20604;-76
2021/08/04 10:10:53;;;;;;;2.05;1.92;;;21.40;99.90;;;;;;5024785;28;20658;-79
2021/08/04 10:13:22;;;;;;;1.70;1.60;;;21.40;99.90;;;;;;5030079;28;20227;-79
2021/08/04 10:15:51;;;;;;;1.88;1.77;;;21.40;99.90;;;;;;5037395;28;20549;-78
2021/08/04 10:18:21;;;;;;;4.28;2.20;;;21.40;99.90;;;;;;5041266;28;20592;-79
2021/08/04 10:20:50;;;;;;;1.77;1.67;;;21.40;99.90;;;;;;5063738;22;20235;-79
2021/08/04 10:23:19;;;;;;;1.52;1.50;;;21.40;99.90;;;;;;5043489;28;20222;-79
2021/08/04 10:25:48;;;;;;;1.80;1.70;;;21.40;99.90;;;;;;5041642;28;20195;-79
2021/08/04 10:28:17;;;;;;;1.45;1.40;;;21.30;99.90;;;;;;5046668;28;20223;-79
2021/08/04 10:30:46;;;;;;;1.50;1.40;;;21.30;99.90;;;;;;5049825;28;20253;-78
2021/08/04 10:33:13;;;;;;;2.53;1.92;;;21.30;99.90;;;;;;5057137;28;20297;-79
2021/08/04 10:35:44;;;;;;;1.60;1.50;;;21.10;99.90;;;;;;5049608;28;20632;-79
2021/08/04 10:38:15;;;;;;;1.85;1.70;;;21.00;99.90;;;;;;5049209;28;20280;-79
2021/08/04 10:40:42;;;;;;;1.88;1.77;;;20.80;99.90;;;;;;5051110;28;21146;-80
2021/08/04 10:43:31;;;;;;;1.80;1.70;;;20.70;99.90;;;;;;5045639;28;20230;-78
2021/08/04 10:45:58;;;;;;;2.45;1.65;;;20.70;99.90;;;;;;5045064;28;20237;-78
2021/08/04 10:48:25;;;;;;;1.60;1.50;;;20.80;99.90;;;;;;5053657;28;20218;-79
2021/08/04 10:51:12;;;;;;;1.95;1.60;;;21.00;99.90;;;;;;5050733;28;20296;-80
2021/08/04 10:54:17;;;;;;;1.52;1.42;;;21.20;99.90;;;;;;5044444;28;20727;-80
2021/08/04 10:57:07;;;;;;;2.03;1.75;;;21.30;99.90;;;;;;5053604;28;20183;-78
2021/08/04 10:59:40;;;;;;;2.75;1.92;;;21.50;99.90;;;;;;5047379;28;20284;-78
2021/08/04 11:02:29;;;;;;;1.77;1.67;;;21.50;99.90;;;;;;5051215;28;20248;-78
2021/08/04 11:04:57;;;;;;;1.65;1.55;;;21.30;99.90;;;;;;5048671;28;20250;-79
2021/08/04 11:07:24;;;;;;;1.70;1.60;;;21.30;99.90;;;;;;5047481;28;20203;-80
2021/08/04 11:10:15;;;;;;;2.10;1.90;;;21.20;99.90;;;;;;5042309;28;20235;-80
2021/08/04 11:12:49;;;;;;;1.67;1.58;;;21.20;99.90;;;;;;5043788;28;20206;-78
2021/08/04 11:15:23;;;;;;;1.67;1.58;;;21.30;99.90;;;;;;5041516;28;20569;-79
2021/08/04 11:18:02;;;;;;;1.98;1.70;;;21.40;99.90;;;;;;5045232;28;20190;-79
2021/08/04 11:20:29;;;;;;;2.35;2.15;;;21.40;99.90;;;;;;5043983;28;20226;-79
2021/08/04 11:22:56;;;;;;;1.80;1.60;;;21.40;99.90;;;;;;5047039;28;20619;-78
2021/08/04 11:25:31;;;;;;;2.30;2.00;;;21.40;99.90;;;;;;5040983;28;20214;-78
2021/08/04 11:28:10;;;;;;;1.48;1.40;;;21.40;99.90;;;;;;5047499;28;20662;-79
2021/08/04 11:30:41;;;;;;;2.10;1.63;;;21.50;99.90;;;;;;5042879;28;20301;-78
2021/08/04 11:33:34;;;;;;;1.98;1.88;;;21.50;99.90;;;;;;5048691;28;20186;-78
2021/08/04 11:36:13;;;;;;;1.77;1.67;;;21.50;99.90;;;;;;5050411;28;20218;-78
2021/08/04 11:38:44;;;;;;;2.10;1.70;;;21.50;99.90;;;;;;5048578;28;20282;-78
2021/08/04 11:41:22;;;;;;;2.10;1.60;;;21.50;99.90;;;;;;5050243;28;20304;-79
2021/08/04 11:43:51;;;;;;;1.95;1.75;;;21.50;99.90;;;;;;5048791;28;20197;-79
2021/08/04 11:46:36;;;;;;;2.05;1.95;;;21.50;99.90;;;;;;5057889;28;20218;-79
2021/08/04 11:49:06;;;;;;;1.70;1.60;;;21.70;99.90;;;;;;5057075;28;20267;-79
2021/08/04 11:51:36;;;;;;;1.92;1.83;;;21.80;99.90;;;;;;5046120;28;20272;-79
2021/08/04 11:54:04;;;;;;;1.80;1.70;;;21.90;99.90;;;;;;5049288;28;20194;-79
2021/08/04 11:56:32;;;;;;;2.80;1.80;;;22.10;99.90;;;;;;5053514;28;20218;-79
2021/08/04 11:59:04;;;;;;;1.77;1.67;;;22.10;99.90;;;;;;5047726;28;20195;-79
2021/08/04 12:01:33;;;;;;;2.30;2.10;;;22.10;99.90;;;;;;5047561;28;20276;-79
2021/08/04 12:04:13;;;;;;;2.20;2.10;;;22.20;99.90;;;;;;5047274;28;20696;-79
2021/08/04 12:06:41;;;;;;;1.80;1.70;;;22.00;99.90;;;;;;5050778;28;20226;-79
2021/08/04 12:09:26;;;;;;;1.92;1.83;;;21.80;99.90;;;;;;5051250;28;20214;-79
2021/08/04 12:11:53;;;;;;;2.05;1.95;;;21.80;99.90;;;;;;5046683;28;20289;-79
2021/08/04 12:14:21;;;;;;;2.65;2.30;;;21.70;99.90;;;;;;5048409;28;20203;-78
2021/08/04 12:16:53;;;;;;;2.47;2.20;;;21.60;99.90;;;;;;5045401;28;20719;-79
2021/08/04 12:19:48;;;;;;;2.60;1.90;;;21.50;99.90;;;;;;5045724;28;20205;-78
2021/08/04 12:22:23;;;;;;;1.98;1.88;;;21.40;99.90;;;;;;5049256;28;20219;-78
2021/08/04 12:24:56;;;;;;;1.90;1.80;;;21.40;99.90;;;;;;5043429;28;20203;-78
2021/08/04 12:27:35;;;;;;;1.73;1.63;;;21.50;99.90;;;;;;5043471;28;20292;-79
2021/08/04 12:30:21;;;;;;;1.65;1.55;;;21.60;99.90;;;;;;5043683;28;20222;-78
2021/08/04 12:32:59;;;;;;;2.17;2.08;;;21.70;99.90;;;;;;5048171;28;20248;-78
2021/08/04 12:35:37;;;;;;;1.98;1.88;;;21.70;99.90;;;;;;5046885;28;20214;-77
2021/08/04 12:38:05;;;;;;;2.03;1.80;;;21.60;99.90;;;;;;5055000;28;20286;-79
2021/08/04 12:40:32;;;;;;;2.10;1.95;;;21.60;99.90;;;;;;5053147;28;20951;-79
2021/08/04 12:43:00;;;;;;;2.20;2.00;;;21.50;99.90;;;;;;5047624;28;20238;-79
2021/08/04 12:45:28;;;;;;;2.13;1.92;;;21.50;99.90;;;;;;5052021;28;20206;-79
2021/08/04 12:47:59;;;;;;;2.35;2.17;;;21.40;99.90;;;;;;5046256;28;20230;-79
2021/08/04 12:50:28;;;;;;;2.50;2.10;;;21.40;99.90;;;;;;5049563;28;20560;-79
2021/08/04 12:52:55;;;;;;;2.55;2.35;;;21.30;99.90;;;;;;5051032;28;20857;-77
2021/08/04 12:55:23;;;;;;;1.98;1.88;;;21.30;99.90;;;;;;5048871;28;20290;-77
2021/08/04 12:58:07;;;;;;;2.45;2.25;;;21.10;99.90;;;;;;5046171;28;20215;-79
2021/08/04 13:00:35;;;;;;;4.65;2.17;;;21.00;99.90;;;;;;5047992;28;20289;-79